sensor_id;sensor_type;location;lat;lon;timestamp;P1;durP1;ratioP1;P2;durP2;ratioP2
75165;SDS011;63747;48.042;10.088;2022-12-13T00:00:38;20.27;;;12.40;;
75165;SDS011;63747;48.042;10.088;2022-12-13T00:03:39;18.20;;;10.50;;
75165;SDS011;63747;48.042;10.088;2022-12-13T00:06:40;21.17;;;11.73;;
75165;SDS011;63747;48.042;10.088;2022-12-13T00:09:41;25.08;;;13.38;;
75165;SDS011;63747;48.042;10.088;2022-12-13T00:12:42;26.20;;;13.43;;
75165;SDS011;63747;48.042;10.088;2022-12-13T00:15:42;23.53;;;13.67;;
75165;SDS011;63747;48.042;10.088;2022-12-13T00:18:46;20.03;;;12.10;;
75165;SDS011;63747;48.042;10.088;2022-12-13T00:21:48;24.27;;;14.20;;
75165;SDS011;63747;48.042;10.088;2022-12-13T00:24:48;22.10;;;12.90;;
75165;SDS011;63747;48.042;10.088;2022-12-13T00:27:50;27.02;;;13.55;;
75165;SDS011;63747;48.042;10.088;2022-12-13T00:30:50;26.63;;;13.80;;
75165;SDS011;63747;48.042;10.088;2022-12-13T00:33:55;27.05;;;14.10;;
75165;SDS011;63747;48.042;10.088;2022-12-13T00:36:56;26.27;;;14.93;;
75165;SDS011;63747;48.042;10.088;2022-12-13T00:39:58;26.08;;;14.57;;
75165;SDS011;63747;48.042;10.088;2022-12-13T00:42:58;23.57;;;11.97;;
75165;SDS011;63747;48.042;10.088;2022-12-13T00:45:59;22.70;;;14.57;;
75165;SDS011;63747;48.042;10.088;2022-12-13T00:49:00;25.40;;;13.97;;
75165;SDS011;63747;48.042;10.088;2022-12-13T00:52:01;29.58;;;14.63;;
75165;SDS011;63747;48.042;10.088;2022-12-13T00:55:02;28.57;;;16.77;;
75165;SDS011;63747;48.042;10.088;2022-12-13T01:01:05;33.60;;;17.35;;
75165;SDS011;63747;48.042;10.088;2022-12-13T01:04:08;24.00;;;14.80;;
75165;SDS011;63747;48.042;10.088;2022-12-13T01:07:09;28.73;;;14.68;;
75165;SDS011;63747;48.042;10.088;2022-12-13T01:10:11;28.50;;;14.33;;
75165;SDS011;63747;48.042;10.088;2022-12-13T01:13:13;27.08;;;12.90;;
75165;SDS011;63747;48.042;10.088;2022-12-13T01:16:14;23.92;;;12.95;;
75165;SDS011;63747;48.042;10.088;2022-12-13T01:19:15;27.55;;;13.48;;
75165;SDS011;63747;48.042;10.088;2022-12-13T01:22:16;19.30;;;10.10;;
75165;SDS011;63747;48.042;10.088;2022-12-13T01:25:17;20.53;;;11.63;;
75165;SDS011;63747;48.042;10.088;2022-12-13T01:28:18;12.90;;;6.87;;
75165;SDS011;63747;48.042;10.088;2022-12-13T01:31:19;21.73;;;10.83;;
75165;SDS011;63747;48.042;10.088;2022-12-13T01:34:20;22.80;;;13.32;;
75165;SDS011;63747;48.042;10.088;2022-12-13T01:37:22;22.23;;;12.52;;
75165;SDS011;63747;48.042;10.088;2022-12-13T01:40:23;21.80;;;12.30;;
75165;SDS011;63747;48.042;10.088;2022-12-13T01:43:28;19.20;;;10.57;;
75165;SDS011;63747;48.042;10.088;2022-12-13T01:46:32;22.73;;;12.13;;
75165;SDS011;63747;48.042;10.088;2022-12-13T01:49:34;23.75;;;13.25;;
75165;SDS011;63747;48.042;10.088;2022-12-13T01:52:35;20.17;;;11.32;;
75165;SDS011;63747;48.042;10.088;2022-12-13T01:55:37;20.42;;;12.18;;
75165;SDS011;63747;48.042;10.088;2022-12-13T01:58:39;19.95;;;11.52;;
75165;SDS011;63747;48.042;10.088;2022-12-13T02:01:41;22.33;;;11.93;;
75165;SDS011;63747;48.042;10.088;2022-12-13T02:08:04;24.65;;;12.07;;
75165;SDS011;63747;48.042;10.088;2022-12-13T02:11:08;17.75;;;10.77;;
75165;SDS011;63747;48.042;10.088;2022-12-13T02:14:09;24.38;;;12.68;;
75165;SDS011;63747;48.042;10.088;2022-12-13T02:24:07;21.73;;;12.45;;
75165;SDS011;63747;48.042;10.088;2022-12-13T02:27:29;23.70;;;13.18;;
75165;SDS011;63747;48.042;10.088;2022-12-13T02:30:38;19.55;;;11.95;;
75165;SDS011;63747;48.042;10.088;2022-12-13T02:47:00;22.15;;;11.60;;
75165;SDS011;63747;48.042;10.088;2022-12-13T02:50:05;24.38;;;11.52;;
75165;SDS011;63747;48.042;10.088;2022-12-13T02:53:08;19.65;;;10.45;;
75165;SDS011;63747;48.042;10.088;2022-12-13T02:56:10;19.00;;;10.57;;
75165;SDS011;63747;48.042;10.088;2022-12-13T03:05:32;20.25;;;11.40;;
75165;SDS011;63747;48.042;10.088;2022-12-13T03:15:57;19.17;;;9.75;;
75165;SDS011;63747;48.042;10.088;2022-12-13T03:19:04;17.42;;;9.40;;
75165;SDS011;63747;48.042;10.088;2022-12-13T03:22:07;16.98;;;9.23;;
75165;SDS011;63747;48.042;10.088;2022-12-13T03:25:07;15.70;;;8.33;;
75165;SDS011;63747;48.042;10.088;2022-12-13T03:28:08;15.63;;;8.87;;
75165;SDS011;63747;48.042;10.088;2022-12-13T03:31:09;14.03;;;7.33;;
75165;SDS011;63747;48.042;10.088;2022-12-13T03:34:10;15.43;;;8.87;;
75165;SDS011;63747;48.042;10.088;2022-12-13T03:37:11;11.90;;;5.60;;
75165;SDS011;63747;48.042;10.088;2022-12-13T03:40:12;15.00;;;8.43;;
75165;SDS011;63747;48.042;10.088;2022-12-13T03:43:13;14.33;;;8.20;;
75165;SDS011;63747;48.042;10.088;2022-12-13T03:46:14;18.53;;;7.70;;
75165;SDS011;63747;48.042;10.088;2022-12-13T03:49:14;16.40;;;9.40;;
75165;SDS011;63747;48.042;10.088;2022-12-13T03:52:15;20.37;;;9.90;;
75165;SDS011;63747;48.042;10.088;2022-12-13T03:55:16;18.80;;;10.60;;
75165;SDS011;63747;48.042;10.088;2022-12-13T03:58:18;21.95;;;11.73;;
75165;SDS011;63747;48.042;10.088;2022-12-13T04:01:19;18.83;;;7.67;;
75165;SDS011;63747;48.042;10.088;2022-12-13T04:07:21;21.35;;;10.95;;
75165;SDS011;63747;48.042;10.088;2022-12-13T04:10:22;22.57;;;11.20;;
75165;SDS011;63747;48.042;10.088;2022-12-13T04:13:23;17.33;;;9.60;;
75165;SDS011;63747;48.042;10.088;2022-12-13T04:16:33;20.45;;;11.48;;
75165;SDS011;63747;48.042;10.088;2022-12-13T04:19:34;18.07;;;9.93;;
75165;SDS011;63747;48.042;10.088;2022-12-13T04:22:35;22.70;;;10.80;;
75165;SDS011;63747;48.042;10.088;2022-12-13T04:25:36;21.43;;;11.03;;
75165;SDS011;63747;48.042;10.088;2022-12-13T04:28:37;15.02;;;9.40;;
75165;SDS011;63747;48.042;10.088;2022-12-13T04:31:37;21.63;;;11.27;;
75165;SDS011;63747;48.042;10.088;2022-12-13T04:34:38;23.17;;;11.30;;
75165;SDS011;63747;48.042;10.088;2022-12-13T04:37:39;22.17;;;11.63;;
75165;SDS011;63747;48.042;10.088;2022-12-13T04:40:40;19.23;;;10.43;;
75165;SDS011;63747;48.042;10.088;2022-12-13T04:43:40;17.77;;;8.83;;
75165;SDS011;63747;48.042;10.088;2022-12-13T04:46:41;12.63;;;6.57;;
75165;SDS011;63747;48.042;10.088;2022-12-13T04:49:42;20.70;;;9.90;;
75165;SDS011;63747;48.042;10.088;2022-12-13T04:52:43;12.30;;;6.63;;
75165;SDS011;63747;48.042;10.088;2022-12-13T04:55:43;15.40;;;6.63;;
75165;SDS011;63747;48.042;10.088;2022-12-13T04:58:44;13.97;;;7.43;;
75165;SDS011;63747;48.042;10.088;2022-12-13T05:01:45;14.03;;;8.50;;
75165;SDS011;63747;48.042;10.088;2022-12-13T05:04:46;15.23;;;8.27;;
75165;SDS011;63747;48.042;10.088;2022-12-13T05:07:46;22.57;;;11.43;;
75165;SDS011;63747;48.042;10.088;2022-12-13T05:10:47;15.07;;;9.13;;
75165;SDS011;63747;48.042;10.088;2022-12-13T05:13:48;21.53;;;11.80;;
75165;SDS011;63747;48.042;10.088;2022-12-13T05:16:49;18.90;;;9.53;;
75165;SDS011;63747;48.042;10.088;2022-12-13T05:19:50;19.27;;;9.48;;
75165;SDS011;63747;48.042;10.088;2022-12-13T05:22:50;14.87;;;6.97;;
75165;SDS011;63747;48.042;10.088;2022-12-13T05:25:51;20.47;;;10.07;;
75165;SDS011;63747;48.042;10.088;2022-12-13T05:28:54;19.47;;;11.73;;
75165;SDS011;63747;48.042;10.088;2022-12-13T05:31:55;19.85;;;9.68;;
75165;SDS011;63747;48.042;10.088;2022-12-13T05:34:56;16.77;;;9.37;;
75165;SDS011;63747;48.042;10.088;2022-12-13T05:37:57;18.80;;;10.67;;
75165;SDS011;63747;48.042;10.088;2022-12-13T05:40:58;15.30;;;8.70;;
75165;SDS011;63747;48.042;10.088;2022-12-13T05:43:59;13.60;;;7.75;;
75165;SDS011;63747;48.042;10.088;2022-12-13T05:46:59;20.57;;;9.93;;
75165;SDS011;63747;48.042;10.088;2022-12-13T05:50:00;11.73;;;6.35;;
75165;SDS011;63747;48.042;10.088;2022-12-13T05:53:02;23.40;;;11.10;;
75165;SDS011;63747;48.042;10.088;2022-12-13T05:56:03;18.52;;;9.77;;
75165;SDS011;63747;48.042;10.088;2022-12-13T05:59:04;24.70;;;12.50;;
75165;SDS011;63747;48.042;10.088;2022-12-13T06:02:04;20.23;;;9.73;;
75165;SDS011;63747;48.042;10.088;2022-12-13T06:05:05;15.87;;;8.10;;
75165;SDS011;63747;48.042;10.088;2022-12-13T06:08:09;23.75;;;10.85;;
75165;SDS011;63747;48.042;10.088;2022-12-13T06:11:10;19.98;;;10.18;;
75165;SDS011;63747;48.042;10.088;2022-12-13T06:14:11;17.20;;;10.35;;
75165;SDS011;63747;48.042;10.088;2022-12-13T06:17:12;14.80;;;7.70;;
75165;SDS011;63747;48.042;10.088;2022-12-13T06:20:13;16.00;;;8.83;;
75165;SDS011;63747;48.042;10.088;2022-12-13T06:23:13;18.83;;;10.10;;
75165;SDS011;63747;48.042;10.088;2022-12-13T06:26:14;22.03;;;10.57;;
75165;SDS011;63747;48.042;10.088;2022-12-13T06:29:15;22.23;;;11.60;;
75165;SDS011;63747;48.042;10.088;2022-12-13T06:32:18;15.82;;;9.35;;
75165;SDS011;63747;48.042;10.088;2022-12-13T06:35:19;16.20;;;8.83;;
75165;SDS011;63747;48.042;10.088;2022-12-13T06:38:23;12.88;;;6.82;;
75165;SDS011;63747;48.042;10.088;2022-12-13T06:41:25;16.98;;;8.88;;
75165;SDS011;63747;48.042;10.088;2022-12-13T06:44:25;14.00;;;7.87;;
75165;SDS011;63747;48.042;10.088;2022-12-13T06:47:26;18.40;;;10.27;;
75165;SDS011;63747;48.042;10.088;2022-12-13T06:50:27;21.07;;;12.00;;
75165;SDS011;63747;48.042;10.088;2022-12-13T06:53:28;20.10;;;10.33;;
75165;SDS011;63747;48.042;10.088;2022-12-13T06:56:29;23.27;;;11.93;;
75165;SDS011;63747;48.042;10.088;2022-12-13T06:59:30;21.75;;;11.80;;
75165;SDS011;63747;48.042;10.088;2022-12-13T07:02:30;16.63;;;8.47;;
75165;SDS011;63747;48.042;10.088;2022-12-13T07:05:31;15.30;;;9.10;;
75165;SDS011;63747;48.042;10.088;2022-12-13T07:08:32;20.17;;;11.50;;
75165;SDS011;63747;48.042;10.088;2022-12-13T07:11:33;21.63;;;11.43;;
75165;SDS011;63747;48.042;10.088;2022-12-13T07:14:34;17.67;;;8.83;;
75165;SDS011;63747;48.042;10.088;2022-12-13T07:17:35;19.10;;;10.10;;
75165;SDS011;63747;48.042;10.088;2022-12-13T07:20:37;19.70;;;11.77;;
75165;SDS011;63747;48.042;10.088;2022-12-13T07:23:41;21.75;;;11.82;;
75165;SDS011;63747;48.042;10.088;2022-12-13T07:26:42;21.57;;;11.93;;
75165;SDS011;63747;48.042;10.088;2022-12-13T07:29:43;21.13;;;11.53;;
75165;SDS011;63747;48.042;10.088;2022-12-13T07:32:43;25.00;;;11.37;;
75165;SDS011;63747;48.042;10.088;2022-12-13T07:35:44;14.90;;;8.43;;
75165;SDS011;63747;48.042;10.088;2022-12-13T07:38:51;19.47;;;10.40;;
75165;SDS011;63747;48.042;10.088;2022-12-13T07:41:54;20.75;;;10.68;;
75165;SDS011;63747;48.042;10.088;2022-12-13T07:44:55;16.35;;;9.65;;
75165;SDS011;63747;48.042;10.088;2022-12-13T07:47:56;16.07;;;9.73;;
75165;SDS011;63747;48.042;10.088;2022-12-13T07:51:00;21.53;;;11.17;;
75165;SDS011;63747;48.042;10.088;2022-12-13T07:54:02;20.35;;;10.88;;
75165;SDS011;63747;48.042;10.088;2022-12-13T07:57:04;21.65;;;11.02;;
75165;SDS011;63747;48.042;10.088;2022-12-13T08:00:05;19.80;;;10.57;;
75165;SDS011;63747;48.042;10.088;2022-12-13T08:03:06;16.80;;;9.38;;
75165;SDS011;63747;48.042;10.088;2022-12-13T08:06:07;26.77;;;12.37;;
75165;SDS011;63747;48.042;10.088;2022-12-13T08:09:10;11.07;;;5.22;;
75165;SDS011;63747;48.042;10.088;2022-12-13T08:12:10;21.60;;;11.97;;
75165;SDS011;63747;48.042;10.088;2022-12-13T08:15:11;17.93;;;10.57;;
75165;SDS011;63747;48.042;10.088;2022-12-13T08:18:12;19.27;;;10.30;;
75165;SDS011;63747;48.042;10.088;2022-12-13T08:21:13;27.20;;;11.30;;
75165;SDS011;63747;48.042;10.088;2022-12-13T08:24:14;17.17;;;9.18;;
75165;SDS011;63747;48.042;10.088;2022-12-13T08:27:15;23.60;;;13.07;;
75165;SDS011;63747;48.042;10.088;2022-12-13T08:30:15;38.47;;;19.47;;
75165;SDS011;63747;48.042;10.088;2022-12-13T08:33:16;20.23;;;12.20;;
75165;SDS011;63747;48.042;10.088;2022-12-13T08:36:18;53.30;;;26.25;;
75165;SDS011;63747;48.042;10.088;2022-12-13T08:39:21;96.00;;;45.38;;
75165;SDS011;63747;48.042;10.088;2022-12-13T08:42:22;25.97;;;15.37;;
75165;SDS011;63747;48.042;10.088;2022-12-13T08:45:24;22.52;;;11.98;;
75165;SDS011;63747;48.042;10.088;2022-12-13T08:48:26;19.23;;;10.13;;
75165;SDS011;63747;48.042;10.088;2022-12-13T08:51:27;21.08;;;12.93;;
75165;SDS011;63747;48.042;10.088;2022-12-13T08:54:28;19.67;;;11.80;;
75165;SDS011;63747;48.042;10.088;2022-12-13T08:57:28;25.03;;;11.00;;
75165;SDS011;63747;48.042;10.088;2022-12-13T09:00:29;19.67;;;12.47;;
75165;SDS011;63747;48.042;10.088;2022-12-13T09:03:30;16.30;;;9.73;;
75165;SDS011;63747;48.042;10.088;2022-12-13T09:06:31;16.50;;;8.23;;
75165;SDS011;63747;48.042;10.088;2022-12-13T09:09:32;19.37;;;11.90;;
75165;SDS011;63747;48.042;10.088;2022-12-13T09:12:32;15.00;;;7.37;;
75165;SDS011;63747;48.042;10.088;2022-12-13T09:15:33;10.13;;;6.00;;
75165;SDS011;63747;48.042;10.088;2022-12-13T09:18:34;18.87;;;10.83;;
75165;SDS011;63747;48.042;10.088;2022-12-13T09:21:35;22.37;;;12.10;;
75165;SDS011;63747;48.042;10.088;2022-12-13T09:24:35;19.20;;;10.60;;
75165;SDS011;63747;48.042;10.088;2022-12-13T09:27:36;17.43;;;10.40;;
75165;SDS011;63747;48.042;10.088;2022-12-13T09:30:37;23.43;;;11.63;;
75165;SDS011;63747;48.042;10.088;2022-12-13T09:33:38;22.67;;;12.63;;
75165;SDS011;63747;48.042;10.088;2022-12-13T09:36:39;18.50;;;10.93;;
75165;SDS011;63747;48.042;10.088;2022-12-13T09:42:41;20.60;;;11.05;;
75165;SDS011;63747;48.042;10.088;2022-12-13T09:45:47;19.65;;;12.30;;
75165;SDS011;63747;48.042;10.088;2022-12-13T09:48:50;21.05;;;12.73;;
75165;SDS011;63747;48.042;10.088;2022-12-13T09:51:54;20.83;;;12.18;;
75165;SDS011;63747;48.042;10.088;2022-12-13T09:54:58;10.23;;;6.90;;
75165;SDS011;63747;48.042;10.088;2022-12-13T09:57:59;21.93;;;12.40;;
75165;SDS011;63747;48.042;10.088;2022-12-13T10:01:10;17.23;;;9.73;;
75165;SDS011;63747;48.042;10.088;2022-12-13T10:04:11;21.03;;;11.63;;
75165;SDS011;63747;48.042;10.088;2022-12-13T10:07:21;20.13;;;11.55;;
75165;SDS011;63747;48.042;10.088;2022-12-13T10:10:23;17.55;;;9.82;;
75165;SDS011;63747;48.042;10.088;2022-12-13T10:19:38;21.60;;;10.40;;
75165;SDS011;63747;48.042;10.088;2022-12-13T10:22:40;16.13;;;9.25;;
75165;SDS011;63747;48.042;10.088;2022-12-13T10:25:49;15.93;;;8.57;;
75165;SDS011;63747;48.042;10.088;2022-12-13T10:29:00;13.98;;;9.18;;
75165;SDS011;63747;48.042;10.088;2022-12-13T10:32:09;18.00;;;8.80;;
75165;SDS011;63747;48.042;10.088;2022-12-13T10:35:18;14.93;;;9.02;;
75165;SDS011;63747;48.042;10.088;2022-12-13T10:38:26;15.95;;;9.65;;
75165;SDS011;63747;48.042;10.088;2022-12-13T10:44:37;10.43;;;6.07;;
75165;SDS011;63747;48.042;10.088;2022-12-13T10:47:38;16.63;;;8.70;;
75165;SDS011;63747;48.042;10.088;2022-12-13T10:50:42;14.77;;;8.82;;
75165;SDS011;63747;48.042;10.088;2022-12-13T10:53:55;19.10;;;9.23;;
75165;SDS011;63747;48.042;10.088;2022-12-13T10:56:59;14.95;;;9.18;;
75165;SDS011;63747;48.042;10.088;2022-12-13T11:00:00;12.63;;;8.60;;
75165;SDS011;63747;48.042;10.088;2022-12-13T11:03:01;12.60;;;8.23;;
75165;SDS011;63747;48.042;10.088;2022-12-13T11:06:06;14.30;;;7.70;;
75165;SDS011;63747;48.042;10.088;2022-12-13T11:09:13;13.20;;;8.60;;
75165;SDS011;63747;48.042;10.088;2022-12-13T11:12:25;19.45;;;9.00;;
75165;SDS011;63747;48.042;10.088;2022-12-13T11:15:26;11.23;;;7.22;;
75165;SDS011;63747;48.042;10.088;2022-12-13T11:18:33;13.85;;;9.07;;
75165;SDS011;63747;48.042;10.088;2022-12-13T11:21:36;15.07;;;8.30;;
75165;SDS011;63747;48.042;10.088;2022-12-13T11:24:39;13.40;;;8.30;;
75165;SDS011;63747;48.042;10.088;2022-12-13T11:37:56;16.27;;;8.48;;
75165;SDS011;63747;48.042;10.088;2022-12-13T11:41:09;11.65;;;7.22;;
75165;SDS011;63747;48.042;10.088;2022-12-13T11:44:38;14.00;;;7.88;;
75165;SDS011;63747;48.042;10.088;2022-12-13T11:51:12;14.48;;;8.57;;
75165;SDS011;63747;48.042;10.088;2022-12-13T11:54:22;8.93;;;6.00;;
75165;SDS011;63747;48.042;10.088;2022-12-13T11:57:45;11.95;;;5.78;;
75165;SDS011;63747;48.042;10.088;2022-12-13T12:01:01;14.18;;;7.93;;
75165;SDS011;63747;48.042;10.088;2022-12-13T12:17:26;13.52;;;7.80;;
75165;SDS011;63747;48.042;10.088;2022-12-13T12:20:45;11.35;;;7.00;;
75165;SDS011;63747;48.042;10.088;2022-12-13T12:40:19;11.73;;;8.20;;
75165;SDS011;63747;48.042;10.088;2022-12-13T12:44:00;22.48;;;8.55;;
75165;SDS011;63747;48.042;10.088;2022-12-13T12:50:31;12.63;;;8.70;;
75165;SDS011;63747;48.042;10.088;2022-12-13T13:00:16;12.25;;;8.57;;
75165;SDS011;63747;48.042;10.088;2022-12-13T13:03:21;13.43;;;9.02;;
75165;SDS011;63747;48.042;10.088;2022-12-13T13:06:29;11.98;;;8.73;;
75165;SDS011;63747;48.042;10.088;2022-12-13T13:09:31;14.80;;;8.10;;
75165;SDS011;63747;48.042;10.088;2022-12-13T13:18:41;13.53;;;8.27;;
75165;SDS011;63747;48.042;10.088;2022-12-13T13:21:43;13.18;;;8.60;;
75165;SDS011;63747;48.042;10.088;2022-12-13T13:24:56;15.05;;;9.10;;
75165;SDS011;63747;48.042;10.088;2022-12-13T13:28:13;14.85;;;8.80;;
75165;SDS011;63747;48.042;10.088;2022-12-13T13:31:15;13.48;;;9.05;;
75165;SDS011;63747;48.042;10.088;2022-12-13T13:34:26;17.93;;;8.37;;
75165;SDS011;63747;48.042;10.088;2022-12-13T13:37:28;13.67;;;8.47;;
75165;SDS011;63747;48.042;10.088;2022-12-13T13:40:44;14.27;;;8.60;;
75165;SDS011;63747;48.042;10.088;2022-12-13T13:43:45;16.37;;;9.27;;
75165;SDS011;63747;48.042;10.088;2022-12-13T13:50:28;13.13;;;8.88;;
75165;SDS011;63747;48.042;10.088;2022-12-13T13:57:24;12.80;;;9.15;;
75165;SDS011;63747;48.042;10.088;2022-12-13T14:10:50;15.38;;;9.45;;
75165;SDS011;63747;48.042;10.088;2022-12-13T14:14:21;12.48;;;8.43;;
75165;SDS011;63747;48.042;10.088;2022-12-13T14:21:06;12.93;;;8.43;;
75165;SDS011;63747;48.042;10.088;2022-12-13T14:30:54;16.90;;;9.00;;
75165;SDS011;63747;48.042;10.088;2022-12-13T14:34:02;19.13;;;9.77;;
75165;SDS011;63747;48.042;10.088;2022-12-13T14:37:18;15.50;;;9.50;;
75165;SDS011;63747;48.042;10.088;2022-12-13T14:40:35;15.75;;;9.95;;
75165;SDS011;63747;48.042;10.088;2022-12-13T14:43:37;17.98;;;9.63;;
75165;SDS011;63747;48.042;10.088;2022-12-13T14:46:46;19.33;;;10.27;;
75165;SDS011;63747;48.042;10.088;2022-12-13T14:49:50;17.67;;;9.40;;
75165;SDS011;63747;48.042;10.088;2022-12-13T14:52:54;13.93;;;9.20;;
75165;SDS011;63747;48.042;10.088;2022-12-13T14:56:04;15.13;;;9.20;;
75165;SDS011;63747;48.042;10.088;2022-12-13T14:59:13;17.20;;;10.27;;
75165;SDS011;63747;48.042;10.088;2022-12-13T15:02:14;17.80;;;10.70;;
75165;SDS011;63747;48.042;10.088;2022-12-13T15:05:25;15.68;;;10.10;;
75165;SDS011;63747;48.042;10.088;2022-12-13T15:08:52;15.25;;;10.23;;
75165;SDS011;63747;48.042;10.088;2022-12-13T15:11:53;17.00;;;9.90;;
75165;SDS011;63747;48.042;10.088;2022-12-13T15:14:55;17.35;;;10.70;;
75165;SDS011;63747;48.042;10.088;2022-12-13T15:18:16;22.80;;;12.18;;
75165;SDS011;63747;48.042;10.088;2022-12-13T15:21:22;22.65;;;11.27;;
75165;SDS011;63747;48.042;10.088;2022-12-13T15:24:25;17.38;;;10.65;;
75165;SDS011;63747;48.042;10.088;2022-12-13T15:27:31;18.55;;;11.32;;
75165;SDS011;63747;48.042;10.088;2022-12-13T15:30:32;16.60;;;10.90;;
75165;SDS011;63747;48.042;10.088;2022-12-13T15:33:35;18.48;;;10.93;;
75165;SDS011;63747;48.042;10.088;2022-12-13T15:36:35;20.63;;;11.57;;
75165;SDS011;63747;48.042;10.088;2022-12-13T15:42:42;18.02;;;10.60;;
75165;SDS011;63747;48.042;10.088;2022-12-13T15:45:49;20.55;;;11.95;;
75165;SDS011;63747;48.042;10.088;2022-12-13T15:48:51;22.45;;;12.90;;
75165;SDS011;63747;48.042;10.088;2022-12-13T15:52:03;22.27;;;12.55;;
75165;SDS011;63747;48.042;10.088;2022-12-13T15:58:20;19.37;;;12.23;;
75165;SDS011;63747;48.042;10.088;2022-12-13T16:01:23;22.50;;;11.32;;
75165;SDS011;63747;48.042;10.088;2022-12-13T16:04:30;22.02;;;12.68;;
75165;SDS011;63747;48.042;10.088;2022-12-13T16:07:32;21.13;;;12.85;;
75165;SDS011;63747;48.042;10.088;2022-12-13T16:10:37;22.05;;;12.65;;
75165;SDS011;63747;48.042;10.088;2022-12-13T16:13:37;21.63;;;13.57;;
75165;SDS011;63747;48.042;10.088;2022-12-13T16:16:38;23.97;;;13.10;;
75165;SDS011;63747;48.042;10.088;2022-12-13T16:19:39;19.10;;;10.40;;
75165;SDS011;63747;48.042;10.088;2022-12-13T16:22:40;24.47;;;13.60;;
75165;SDS011;63747;48.042;10.088;2022-12-13T16:25:41;24.92;;;14.25;;
75165;SDS011;63747;48.042;10.088;2022-12-13T16:28:42;23.57;;;13.27;;
75165;SDS011;63747;48.042;10.088;2022-12-13T16:31:43;20.87;;;10.27;;
75165;SDS011;63747;48.042;10.088;2022-12-13T16:34:44;21.73;;;12.93;;
75165;SDS011;63747;48.042;10.088;2022-12-13T16:37:44;25.30;;;14.10;;
75165;SDS011;63747;48.042;10.088;2022-12-13T16:40:45;21.90;;;13.83;;
75165;SDS011;63747;48.042;10.088;2022-12-13T16:43:57;23.63;;;13.05;;
75165;SDS011;63747;48.042;10.088;2022-12-13T16:47:00;21.13;;;13.85;;
75165;SDS011;63747;48.042;10.088;2022-12-13T16:50:01;23.83;;;14.18;;
75165;SDS011;63747;48.042;10.088;2022-12-13T16:53:09;23.33;;;13.57;;
75165;SDS011;63747;48.042;10.088;2022-12-13T16:56:09;16.40;;;10.77;;
75165;SDS011;63747;48.042;10.088;2022-12-13T16:59:14;23.90;;;13.70;;
75165;SDS011;63747;48.042;10.088;2022-12-13T17:02:16;24.00;;;13.35;;
75165;SDS011;63747;48.042;10.088;2022-12-13T17:05:17;24.08;;;13.90;;
75165;SDS011;63747;48.042;10.088;2022-12-13T17:08:18;24.67;;;13.33;;
75165;SDS011;63747;48.042;10.088;2022-12-13T17:11:18;23.43;;;14.23;;
75165;SDS011;63747;48.042;10.088;2022-12-13T17:14:19;21.40;;;12.63;;
75165;SDS011;63747;48.042;10.088;2022-12-13T17:17:20;22.53;;;13.90;;
75165;SDS011;63747;48.042;10.088;2022-12-13T17:20:20;23.13;;;12.63;;
75165;SDS011;63747;48.042;10.088;2022-12-13T17:23:21;24.20;;;13.07;;
75165;SDS011;63747;48.042;10.088;2022-12-13T17:26:22;30.43;;;13.60;;
75165;SDS011;63747;48.042;10.088;2022-12-13T17:29:23;24.25;;;14.65;;
75165;SDS011;63747;48.042;10.088;2022-12-13T17:32:24;26.17;;;14.87;;
75165;SDS011;63747;48.042;10.088;2022-12-13T17:35:25;24.80;;;13.90;;
75165;SDS011;63747;48.042;10.088;2022-12-13T17:38:26;25.67;;;13.80;;
75165;SDS011;63747;48.042;10.088;2022-12-13T17:41:26;18.17;;;11.10;;
75165;SDS011;63747;48.042;10.088;2022-12-13T17:44:27;26.97;;;13.97;;
75165;SDS011;63747;48.042;10.088;2022-12-13T17:47:28;20.97;;;10.70;;
75165;SDS011;63747;48.042;10.088;2022-12-13T17:50:28;17.60;;;10.53;;
75165;SDS011;63747;48.042;10.088;2022-12-13T17:53:29;25.87;;;12.13;;
75165;SDS011;63747;48.042;10.088;2022-12-13T17:56:30;24.70;;;13.10;;
75165;SDS011;63747;48.042;10.088;2022-12-13T17:59:31;20.33;;;12.07;;
75165;SDS011;63747;48.042;10.088;2022-12-13T18:02:32;19.80;;;12.60;;
75165;SDS011;63747;48.042;10.088;2022-12-13T18:05:36;23.48;;;13.10;;
75165;SDS011;63747;48.042;10.088;2022-12-13T18:08:40;24.60;;;13.55;;
75165;SDS011;63747;48.042;10.088;2022-12-13T18:11:43;23.30;;;13.52;;
75165;SDS011;63747;48.042;10.088;2022-12-13T18:14:43;21.17;;;12.73;;
75165;SDS011;63747;48.042;10.088;2022-12-13T18:17:44;23.10;;;13.33;;
75165;SDS011;63747;48.042;10.088;2022-12-13T18:20:45;21.07;;;14.23;;
75165;SDS011;63747;48.042;10.088;2022-12-13T18:23:46;25.13;;;13.30;;
75165;SDS011;63747;48.042;10.088;2022-12-13T18:26:47;25.30;;;14.60;;
75165;SDS011;63747;48.042;10.088;2022-12-13T18:29:48;25.43;;;13.93;;
75165;SDS011;63747;48.042;10.088;2022-12-13T18:32:48;24.10;;;14.00;;
75165;SDS011;63747;48.042;10.088;2022-12-13T18:35:49;23.50;;;13.13;;
75165;SDS011;63747;48.042;10.088;2022-12-13T18:38:50;21.00;;;13.23;;
75165;SDS011;63747;48.042;10.088;2022-12-13T18:41:51;24.83;;;13.07;;
75165;SDS011;63747;48.042;10.088;2022-12-13T18:44:52;28.75;;;14.15;;
75165;SDS011;63747;48.042;10.088;2022-12-13T18:47:53;26.17;;;14.13;;
75165;SDS011;63747;48.042;10.088;2022-12-13T18:50:56;21.30;;;13.47;;
75165;SDS011;63747;48.042;10.088;2022-12-13T18:54:00;21.80;;;12.73;;
75165;SDS011;63747;48.042;10.088;2022-12-13T18:57:01;24.97;;;13.77;;
75165;SDS011;63747;48.042;10.088;2022-12-13T19:00:02;23.13;;;13.90;;
75165;SDS011;63747;48.042;10.088;2022-12-13T19:03:04;24.23;;;14.68;;
75165;SDS011;63747;48.042;10.088;2022-12-13T19:06:05;25.30;;;13.50;;
75165;SDS011;63747;48.042;10.088;2022-12-13T19:12:07;22.67;;;13.02;;
75165;SDS011;63747;48.042;10.088;2022-12-13T19:15:08;23.03;;;13.40;;
75165;SDS011;63747;48.042;10.088;2022-12-13T19:18:11;30.83;;;14.88;;
75165;SDS011;63747;48.042;10.088;2022-12-13T19:21:13;25.40;;;14.13;;
75165;SDS011;63747;48.042;10.088;2022-12-13T19:24:15;23.67;;;13.48;;
75165;SDS011;63747;48.042;10.088;2022-12-13T19:27:16;25.77;;;14.27;;
75165;SDS011;63747;48.042;10.088;2022-12-13T19:30:16;23.97;;;14.13;;
75165;SDS011;63747;48.042;10.088;2022-12-13T19:33:21;26.33;;;14.60;;
75165;SDS011;63747;48.042;10.088;2022-12-13T19:36:22;26.03;;;13.83;;
75165;SDS011;63747;48.042;10.088;2022-12-13T19:39:23;23.00;;;13.80;;
75165;SDS011;63747;48.042;10.088;2022-12-13T19:42:24;18.67;;;11.40;;
75165;SDS011;63747;48.042;10.088;2022-12-13T19:45:24;26.67;;;13.90;;
75165;SDS011;63747;48.042;10.088;2022-12-13T19:48:25;26.37;;;14.90;;
75165;SDS011;63747;48.042;10.088;2022-12-13T19:51:26;25.27;;;14.00;;
75165;SDS011;63747;48.042;10.088;2022-12-13T19:54:27;23.23;;;13.80;;
75165;SDS011;63747;48.042;10.088;2022-12-13T19:57:27;21.70;;;13.13;;
75165;SDS011;63747;48.042;10.088;2022-12-13T20:00:31;25.75;;;14.70;;
75165;SDS011;63747;48.042;10.088;2022-12-13T20:03:33;24.23;;;13.60;;
75165;SDS011;63747;48.042;10.088;2022-12-13T20:06:35;22.42;;;13.48;;
75165;SDS011;63747;48.042;10.088;2022-12-13T20:09:36;26.10;;;14.57;;
75165;SDS011;63747;48.042;10.088;2022-12-13T20:12:38;30.17;;;14.68;;